Terminal Aerodrome Forecast
Issued by NWS

Home | Current Version | Previous Version | Text Only | Print | Product List | Glossary On
Versions: 1 2 3 4 5 6 7 8 9 10 11 12 13 14 15 16 17 18 19 20 21 22 23
000
FTAK31 PANC 242150 AAA
TAFADU
TAF AMD
PADU 242150Z 2422/2518 13016G26KT 4SM -RA BR SCT008 BKN015
     FM242200 12025G35KT 3SM -RA BR OVC012
      TEMPO 2503/2507 6SM -SHRA SCT025 OVC040
     FM250900 12010KT P6SM -SHRA SCT012 BKN022=

USA.gov is the U.S. government's official web portal to all federal, state and local government web resources and services.